sensor_id;sensor_type;location;lat;lon;timestamp;temperature;humidity
1568;DHT22;777;47.156;8.326;2023-04-15T00:02:19;5.00;99.90
1568;DHT22;777;47.156;8.326;2023-04-15T00:04:46;5.00;99.90
1568;DHT22;777;47.156;8.326;2023-04-15T00:07:14;5.10;99.90
1568;DHT22;777;47.156;8.326;2023-04-15T00:09:42;5.10;99.90
1568;DHT22;777;47.156;8.326;2023-04-15T00:12:10;5.30;99.90
1568;DHT22;777;47.156;8.326;2023-04-15T00:14:37;5.40;99.90
1568;DHT22;777;47.156;8.326;2023-04-15T00:17:04;5.60;99.90
1568;DHT22;777;47.156;8.326;2023-04-15T00:19:32;5.60;99.90
1568;DHT22;777;47.156;8.326;2023-04-15T00:21:59;5.60;99.90
1568;DHT22;777;47.156;8.326;2023-04-15T00:24:27;5.60;99.90
1568;DHT22;777;47.156;8.326;2023-04-15T00:26:56;5.70;99.90
1568;DHT22;777;47.156;8.326;2023-04-15T00:29:23;5.60;99.90
1568;DHT22;777;47.156;8.326;2023-04-15T00:31:50;5.60;99.90
1568;DHT22;777;47.156;8.326;2023-04-15T00:34:17;5.60;99.90
1568;DHT22;777;47.156;8.326;2023-04-15T00:36:44;5.60;99.90
1568;DHT22;777;47.156;8.326;2023-04-15T00:39:12;5.80;99.90
1568;DHT22;777;47.156;8.326;2023-04-15T00:41:43;6.00;99.90
1568;DHT22;777;47.156;8.326;2023-04-15T00:44:11;6.00;99.90
1568;DHT22;777;47.156;8.326;2023-04-15T00:46:39;5.90;99.90
1568;DHT22;777;47.156;8.326;2023-04-15T00:49:07;5.70;99.90
1568;DHT22;777;47.156;8.326;2023-04-15T00:51:34;5.50;99.90
1568;DHT22;777;47.156;8.326;2023-04-15T00:54:02;5.40;99.90
1568;DHT22;777;47.156;8.326;2023-04-15T00:56:30;5.50;99.90
1568;DHT22;777;47.156;8.326;2023-04-15T00:58:59;5.60;99.90
1568;DHT22;777;47.156;8.326;2023-04-15T01:01:27;5.70;99.90
1568;DHT22;777;47.156;8.326;2023-04-15T01:03:55;5.90;99.90
1568;DHT22;777;47.156;8.326;2023-04-15T01:06:23;6.00;99.90
1568;DHT22;777;47.156;8.326;2023-04-15T01:08:52;6.10;99.90
1568;DHT22;777;47.156;8.326;2023-04-15T01:11:20;6.10;99.90
1568;DHT22;777;47.156;8.326;2023-04-15T01:13:47;6.10;99.90
1568;DHT22;777;47.156;8.326;2023-04-15T01:16:15;6.10;99.90
1568;DHT22;777;47.156;8.326;2023-04-15T01:18:43;6.10;99.90
1568;DHT22;777;47.156;8.326;2023-04-15T01:21:11;6.10;99.90
1568;DHT22;777;47.156;8.326;2023-04-15T01:23:38;6.10;99.90
1568;DHT22;777;47.156;8.326;2023-04-15T01:26:07;6.20;99.90
1568;DHT22;777;47.156;8.326;2023-04-15T01:28:35;6.10;99.90
1568;DHT22;777;47.156;8.326;2023-04-15T01:31:08;6.00;99.90
1568;DHT22;777;47.156;8.326;2023-04-15T01:33:38;5.90;99.90
1568;DHT22;777;47.156;8.326;2023-04-15T01:36:07;5.90;99.90
1568;DHT22;777;47.156;8.326;2023-04-15T01:38:35;5.80;99.90
1568;DHT22;777;47.156;8.326;2023-04-15T01:41:03;5.60;99.90
1568;DHT22;777;47.156;8.326;2023-04-15T01:43:33;5.50;99.90
1568;DHT22;777;47.156;8.326;2023-04-15T01:46:01;5.60;99.90
1568;DHT22;777;47.156;8.326;2023-04-15T01:48:28;5.50;99.90
1568;DHT22;777;47.156;8.326;2023-04-15T01:50:55;5.40;99.90
1568;DHT22;777;47.156;8.326;2023-04-15T01:53:23;5.40;99.90
1568;DHT22;777;47.156;8.326;2023-04-15T01:55:50;5.50;99.90
1568;DHT22;777;47.156;8.326;2023-04-15T01:58:18;5.60;99.90
1568;DHT22;777;47.156;8.326;2023-04-15T02:00:48;5.60;99.90
1568;DHT22;777;47.156;8.326;2023-04-15T02:03:15;5.80;99.90
1568;DHT22;777;47.156;8.326;2023-04-15T02:05:42;5.90;99.90
1568;DHT22;777;47.156;8.326;2023-04-15T02:08:10;5.90;99.90
1568;DHT22;777;47.156;8.326;2023-04-15T02:10:38;6.10;99.90
1568;DHT22;777;47.156;8.326;2023-04-15T02:13:05;6.20;99.90
1568;DHT22;777;47.156;8.326;2023-04-15T02:15:32;6.20;99.90
1568;DHT22;777;47.156;8.326;2023-04-15T02:18:00;6.10;99.90
1568;DHT22;777;47.156;8.326;2023-04-15T02:20:27;6.10;99.90
1568;DHT22;777;47.156;8.326;2023-04-15T02:22:57;6.10;99.90
1568;DHT22;777;47.156;8.326;2023-04-15T02:25:24;6.00;99.90
1568;DHT22;777;47.156;8.326;2023-04-15T02:27:51;6.00;99.90
1568;DHT22;777;47.156;8.326;2023-04-15T02:30:19;6.00;99.90
1568;DHT22;777;47.156;8.326;2023-04-15T02:32:48;6.00;99.90
1568;DHT22;777;47.156;8.326;2023-04-15T02:35:17;6.10;99.90
1568;DHT22;777;47.156;8.326;2023-04-15T02:37:44;6.10;99.90
1568;DHT22;777;47.156;8.326;2023-04-15T02:40:12;6.20;99.90
1568;DHT22;777;47.156;8.326;2023-04-15T02:42:39;6.30;99.90
1568;DHT22;777;47.156;8.326;2023-04-15T02:45:10;6.30;99.90
1568;DHT22;777;47.156;8.326;2023-04-15T02:47:38;6.40;99.90
1568;DHT22;777;47.156;8.326;2023-04-15T02:50:09;6.50;99.90
1568;DHT22;777;47.156;8.326;2023-04-15T02:52:40;6.50;99.90
1568;DHT22;777;47.156;8.326;2023-04-15T02:55:08;6.50;99.90
1568;DHT22;777;47.156;8.326;2023-04-15T02:57:36;6.40;99.90
1568;DHT22;777;47.156;8.326;2023-04-15T03:00:07;6.40;99.90
1568;DHT22;777;47.156;8.326;2023-04-15T03:02:39;6.50;99.90
1568;DHT22;777;47.156;8.326;2023-04-15T03:05:10;6.60;99.90
1568;DHT22;777;47.156;8.326;2023-04-15T03:07:41;6.50;99.90
1568;DHT22;777;47.156;8.326;2023-04-15T03:10:08;6.40;99.90
1568;DHT22;777;47.156;8.326;2023-04-15T03:12:36;6.40;99.90
1568;DHT22;777;47.156;8.326;2023-04-15T03:15:04;6.30;99.90
1568;DHT22;777;47.156;8.326;2023-04-15T03:17:36;6.30;99.90
1568;DHT22;777;47.156;8.326;2023-04-15T03:20:04;6.20;99.90
1568;DHT22;777;47.156;8.326;2023-04-15T03:22:32;6.30;99.90
1568;DHT22;777;47.156;8.326;2023-04-15T03:25:00;6.20;99.90
1568;DHT22;777;47.156;8.326;2023-04-15T03:27:27;6.30;99.90
1568;DHT22;777;47.156;8.326;2023-04-15T03:29:58;6.30;99.90
1568;DHT22;777;47.156;8.326;2023-04-15T03:32:29;6.30;99.90
1568;DHT22;777;47.156;8.326;2023-04-15T03:34:56;6.30;99.90
1568;DHT22;777;47.156;8.326;2023-04-15T03:37:23;6.30;99.90
1568;DHT22;777;47.156;8.326;2023-04-15T03:39:50;6.30;99.90
1568;DHT22;777;47.156;8.326;2023-04-15T03:42:18;6.40;99.90
1568;DHT22;777;47.156;8.326;2023-04-15T03:44:45;6.40;99.90
1568;DHT22;777;47.156;8.326;2023-04-15T03:47:12;6.40;99.90
1568;DHT22;777;47.156;8.326;2023-04-15T03:49:40;6.40;99.90
1568;DHT22;777;47.156;8.326;2023-04-15T03:52:07;6.40;99.90
1568;DHT22;777;47.156;8.326;2023-04-15T03:54:34;6.40;99.90
1568;DHT22;777;47.156;8.326;2023-04-15T03:57:01;6.40;99.90
1568;DHT22;777;47.156;8.326;2023-04-15T03:59:29;6.20;99.90
1568;DHT22;777;47.156;8.326;2023-04-15T04:01:56;6.20;99.90
1568;DHT22;777;47.156;8.326;2023-04-15T04:04:23;6.20;99.90
1568;DHT22;777;47.156;8.326;2023-04-15T04:06:51;6.10;99.90
1568;DHT22;777;47.156;8.326;2023-04-15T04:09:18;6.10;99.90
1568;DHT22;777;47.156;8.326;2023-04-15T04:11:45;6.10;99.90
1568;DHT22;777;47.156;8.326;2023-04-15T04:14:12;6.00;99.90
1568;DHT22;777;47.156;8.326;2023-04-15T04:16:40;6.10;99.90
1568;DHT22;777;47.156;8.326;2023-04-15T04:19:07;6.20;99.90
1568;DHT22;777;47.156;8.326;2023-04-15T04:21:36;6.10;99.90
1568;DHT22;777;47.156;8.326;2023-04-15T04:24:04;6.00;99.90
1568;DHT22;777;47.156;8.326;2023-04-15T04:26:31;6.10;99.90
1568;DHT22;777;47.156;8.326;2023-04-15T04:28:58;6.20;99.90
1568;DHT22;777;47.156;8.326;2023-04-15T04:31:25;6.20;99.90
1568;DHT22;777;47.156;8.326;2023-04-15T04:33:54;6.30;99.90
1568;DHT22;777;47.156;8.326;2023-04-15T04:36:21;6.30;99.90
1568;DHT22;777;47.156;8.326;2023-04-15T04:38:48;6.10;99.90
1568;DHT22;777;47.156;8.326;2023-04-15T04:41:15;6.10;99.90
1568;DHT22;777;47.156;8.326;2023-04-15T04:43:43;6.00;99.90
1568;DHT22;777;47.156;8.326;2023-04-15T04:46:10;6.10;99.90
1568;DHT22;777;47.156;8.326;2023-04-15T04:48:37;6.20;99.90
1568;DHT22;777;47.156;8.326;2023-04-15T04:51:05;6.30;99.90
1568;DHT22;777;47.156;8.326;2023-04-15T04:53:32;6.30;99.90
1568;DHT22;777;47.156;8.326;2023-04-15T04:55:59;6.30;99.90
1568;DHT22;777;47.156;8.326;2023-04-15T04:58:26;6.30;99.90
1568;DHT22;777;47.156;8.326;2023-04-15T05:00:54;6.30;99.90
1568;DHT22;777;47.156;8.326;2023-04-15T05:03:23;6.40;99.90
1568;DHT22;777;47.156;8.326;2023-04-15T05:05:50;6.40;99.90
1568;DHT22;777;47.156;8.326;2023-04-15T05:08:18;6.50;99.90
1568;DHT22;777;47.156;8.326;2023-04-15T05:10:46;6.50;99.90
1568;DHT22;777;47.156;8.326;2023-04-15T05:13:13;6.50;99.90
1568;DHT22;777;47.156;8.326;2023-04-15T05:15:40;6.50;99.90
1568;DHT22;777;47.156;8.326;2023-04-15T05:18:07;6.40;99.90
1568;DHT22;777;47.156;8.326;2023-04-15T05:20:34;6.40;99.90
1568;DHT22;777;47.156;8.326;2023-04-15T05:23:01;6.50;99.90
1568;DHT22;777;47.156;8.326;2023-04-15T05:25:30;6.60;99.90
1568;DHT22;777;47.156;8.326;2023-04-15T05:27:57;6.60;99.90
1568;DHT22;777;47.156;8.326;2023-04-15T05:30:24;6.70;99.90
1568;DHT22;777;47.156;8.326;2023-04-15T05:32:51;6.70;99.90
1568;DHT22;777;47.156;8.326;2023-04-15T05:35:18;6.70;99.90
1568;DHT22;777;47.156;8.326;2023-04-15T05:37:45;6.70;99.90
1568;DHT22;777;47.156;8.326;2023-04-15T05:40:12;6.70;99.90
1568;DHT22;777;47.156;8.326;2023-04-15T05:42:41;6.70;99.90
1568;DHT22;777;47.156;8.326;2023-04-15T05:45:09;6.70;99.90
1568;DHT22;777;47.156;8.326;2023-04-15T05:47:36;6.80;99.90
1568;DHT22;777;47.156;8.326;2023-04-15T05:50:03;6.80;99.90
1568;DHT22;777;47.156;8.326;2023-04-15T05:52:31;6.90;99.90
1568;DHT22;777;47.156;8.326;2023-04-15T05:54:58;7.00;99.90
1568;DHT22;777;47.156;8.326;2023-04-15T05:57:25;7.00;99.90
1568;DHT22;777;47.156;8.326;2023-04-15T05:59:54;7.10;99.90
1568;DHT22;777;47.156;8.326;2023-04-15T06:02:22;7.00;99.90
1568;DHT22;777;47.156;8.326;2023-04-15T06:04:48;6.80;99.90
1568;DHT22;777;47.156;8.326;2023-04-15T06:07:15;6.80;99.90
1568;DHT22;777;47.156;8.326;2023-04-15T06:09:42;6.80;99.90
1568;DHT22;777;47.156;8.326;2023-04-15T06:12:09;6.80;99.90
1568;DHT22;777;47.156;8.326;2023-04-15T06:14:37;6.90;99.90
1568;DHT22;777;47.156;8.326;2023-04-15T06:17:06;7.00;99.90
1568;DHT22;777;47.156;8.326;2023-04-15T06:19:33;7.10;99.90
1568;DHT22;777;47.156;8.326;2023-04-15T06:22:01;7.20;99.90
1568;DHT22;777;47.156;8.326;2023-04-15T06:24:28;7.30;99.90
1568;DHT22;777;47.156;8.326;2023-04-15T06:26:56;7.30;99.90
1568;DHT22;777;47.156;8.326;2023-04-15T06:29:23;7.30;99.90
1568;DHT22;777;47.156;8.326;2023-04-15T06:31:50;7.40;99.90
1568;DHT22;777;47.156;8.326;2023-04-15T06:34:18;7.40;99.90
1568;DHT22;777;47.156;8.326;2023-04-15T06:36:46;7.30;99.90
1568;DHT22;777;47.156;8.326;2023-04-15T06:39:13;7.30;99.90
1568;DHT22;777;47.156;8.326;2023-04-15T06:41:40;7.40;99.90
1568;DHT22;777;47.156;8.326;2023-04-15T06:44:07;7.50;99.90
1568;DHT22;777;47.156;8.326;2023-04-15T06:46:34;7.60;99.90
1568;DHT22;777;47.156;8.326;2023-04-15T06:49:01;7.80;99.90
1568;DHT22;777;47.156;8.326;2023-04-15T06:51:30;7.80;99.90
1568;DHT22;777;47.156;8.326;2023-04-15T06:53:57;7.70;99.90
1568;DHT22;777;47.156;8.326;2023-04-15T06:56:24;7.50;99.90
1568;DHT22;777;47.156;8.326;2023-04-15T06:58:51;7.50;99.90
1568;DHT22;777;47.156;8.326;2023-04-15T07:01:18;7.40;99.90
1568;DHT22;777;47.156;8.326;2023-04-15T07:03:46;7.40;99.90
1568;DHT22;777;47.156;8.326;2023-04-15T07:06:13;7.40;99.90
1568;DHT22;777;47.156;8.326;2023-04-15T07:08:41;7.50;99.90
1568;DHT22;777;47.156;8.326;2023-04-15T07:11:08;7.50;99.90
1568;DHT22;777;47.156;8.326;2023-04-15T07:13:35;7.50;99.90
1568;DHT22;777;47.156;8.326;2023-04-15T07:16:02;7.50;99.90
1568;DHT22;777;47.156;8.326;2023-04-15T07:18:29;7.50;99.90
1568;DHT22;777;47.156;8.326;2023-04-15T07:20:56;7.60;99.90
1568;DHT22;777;47.156;8.326;2023-04-15T07:23:23;7.70;99.90
1568;DHT22;777;47.156;8.326;2023-04-15T07:25:52;7.60;99.90
1568;DHT22;777;47.156;8.326;2023-04-15T07:28:18;7.70;99.90
1568;DHT22;777;47.156;8.326;2023-04-15T07:30:46;7.60;99.90
1568;DHT22;777;47.156;8.326;2023-04-15T07:33:13;7.60;99.90
1568;DHT22;777;47.156;8.326;2023-04-15T07:35:40;7.50;99.90
1568;DHT22;777;47.156;8.326;2023-04-15T07:38:07;7.50;99.90
1568;DHT22;777;47.156;8.326;2023-04-15T07:40:34;7.50;99.90
1568;DHT22;777;47.156;8.326;2023-04-15T07:43:02;7.60;99.90
1568;DHT22;777;47.156;8.326;2023-04-15T07:45:30;7.80;99.90
1568;DHT22;777;47.156;8.326;2023-04-15T07:47:57;7.80;99.90
1568;DHT22;777;47.156;8.326;2023-04-15T07:50:24;7.80;99.90
1568;DHT22;777;47.156;8.326;2023-04-15T07:52:51;8.00;99.90
1568;DHT22;777;47.156;8.326;2023-04-15T07:55:18;8.20;99.90
1568;DHT22;777;47.156;8.326;2023-04-15T07:57:48;8.50;99.90
1568;DHT22;777;47.156;8.326;2023-04-15T08:00:17;8.70;99.90
1568;DHT22;777;47.156;8.326;2023-04-15T08:02:44;9.10;99.90
1568;DHT22;777;47.156;8.326;2023-04-15T08:05:13;9.40;99.90
1568;DHT22;777;47.156;8.326;2023-04-15T08:07:40;9.70;99.90
1568;DHT22;777;47.156;8.326;2023-04-15T08:10:07;10.00;99.90
1568;DHT22;777;47.156;8.326;2023-04-15T08:12:35;10.20;99.90
1568;DHT22;777;47.156;8.326;2023-04-15T08:15:03;9.90;99.90
1568;DHT22;777;47.156;8.326;2023-04-15T08:17:32;9.60;99.90
1568;DHT22;777;47.156;8.326;2023-04-15T08:19:59;10.10;99.90
1568;DHT22;777;47.156;8.326;2023-04-15T08:22:26;10.50;99.90
1568;DHT22;777;47.156;8.326;2023-04-15T08:24:53;10.30;99.90
1568;DHT22;777;47.156;8.326;2023-04-15T08:27:20;10.10;99.90
1568;DHT22;777;47.156;8.326;2023-04-15T08:29:47;10.30;99.90
1568;DHT22;777;47.156;8.326;2023-04-15T08:32:14;10.40;99.90
1568;DHT22;777;47.156;8.326;2023-04-15T08:34:43;10.50;99.90
1568;DHT22;777;47.156;8.326;2023-04-15T08:37:10;10.50;99.90
1568;DHT22;777;47.156;8.326;2023-04-15T08:39:37;10.50;99.90
1568;DHT22;777;47.156;8.326;2023-04-15T08:42:09;10.40;99.90
1568;DHT22;777;47.156;8.326;2023-04-15T08:44:37;10.40;99.90
1568;DHT22;777;47.156;8.326;2023-04-15T08:47:07;10.40;99.90
1568;DHT22;777;47.156;8.326;2023-04-15T08:49:38;10.50;99.90
1568;DHT22;777;47.156;8.326;2023-04-15T08:52:08;10.50;99.90
1568;DHT22;777;47.156;8.326;2023-04-15T08:54:35;10.40;99.90
1568;DHT22;777;47.156;8.326;2023-04-15T08:57:03;10.60;99.90
1568;DHT22;777;47.156;8.326;2023-04-15T08:59:31;11.00;99.90
1568;DHT22;777;47.156;8.326;2023-04-15T09:01:58;10.80;99.90
1568;DHT22;777;47.156;8.326;2023-04-15T09:04:26;10.40;99.90
1568;DHT22;777;47.156;8.326;2023-04-15T09:06:53;10.30;99.90
1568;DHT22;777;47.156;8.326;2023-04-15T09:09:23;10.50;99.90
1568;DHT22;777;47.156;8.326;2023-04-15T09:11:50;10.90;99.90
1568;DHT22;777;47.156;8.326;2023-04-15T09:14:17;11.00;99.90
1568;DHT22;777;47.156;8.326;2023-04-15T09:16:57;11.20;99.90
1568;DHT22;777;47.156;8.326;2023-04-15T09:19:25;11.10;99.90
1568;DHT22;777;47.156;8.326;2023-04-15T09:21:53;11.10;99.90
1568;DHT22;777;47.156;8.326;2023-04-15T09:24:23;11.00;99.90
1568;DHT22;777;47.156;8.326;2023-04-15T09:26:51;11.40;99.90
1568;DHT22;777;47.156;8.326;2023-04-15T09:29:19;11.70;99.90
1568;DHT22;777;47.156;8.326;2023-04-15T09:31:46;11.80;99.90
1568;DHT22;777;47.156;8.326;2023-04-15T09:34:13;11.50;99.90
1568;DHT22;777;47.156;8.326;2023-04-15T09:36:54;11.50;99.90
1568;DHT22;777;47.156;8.326;2023-04-15T09:39:23;11.40;99.90
1568;DHT22;777;47.156;8.326;2023-04-15T09:42:04;11.10;99.90
1568;DHT22;777;47.156;8.326;2023-04-15T09:44:32;10.90;99.90
1568;DHT22;777;47.156;8.326;2023-04-15T09:46:59;10.60;99.90
1568;DHT22;777;47.156;8.326;2023-04-15T09:49:26;10.00;99.90
1568;DHT22;777;47.156;8.326;2023-04-15T09:51:58;9.80;99.90
1568;DHT22;777;47.156;8.326;2023-04-15T09:54:33;9.70;99.90
1568;DHT22;777;47.156;8.326;2023-04-15T09:57:05;9.60;99.90
1568;DHT22;777;47.156;8.326;2023-04-15T09:59:32;9.50;99.90
1568;DHT22;777;47.156;8.326;2023-04-15T10:01:59;9.40;99.90
1568;DHT22;777;47.156;8.326;2023-04-15T10:04:27;9.20;99.90
1568;DHT22;777;47.156;8.326;2023-04-15T10:06:56;9.10;99.90
1568;DHT22;777;47.156;8.326;2023-04-15T10:09:23;9.00;99.90
1568;DHT22;777;47.156;8.326;2023-04-15T10:11:52;8.80;99.90
1568;DHT22;777;47.156;8.326;2023-04-15T10:14:20;8.50;99.90
1568;DHT22;777;47.156;8.326;2023-04-15T10:16:48;8.20;99.90
1568;DHT22;777;47.156;8.326;2023-04-15T10:19:18;8.00;99.90
1568;DHT22;777;47.156;8.326;2023-04-15T10:21:47;8.00;99.90
1568;DHT22;777;47.156;8.326;2023-04-15T10:24:15;7.90;99.90
1568;DHT22;777;47.156;8.326;2023-04-15T10:26:43;8.00;99.90
1568;DHT22;777;47.156;8.326;2023-04-15T10:29:12;8.10;99.90
1568;DHT22;777;47.156;8.326;2023-04-15T10:31:40;8.10;99.90
1568;DHT22;777;47.156;8.326;2023-04-15T10:34:08;7.90;99.90
1568;DHT22;777;47.156;8.326;2023-04-15T10:36:37;7.90;99.90
1568;DHT22;777;47.156;8.326;2023-04-15T10:39:39;8.10;99.90
1568;DHT22;777;47.156;8.326;2023-04-15T10:42:07;8.10;99.90
1568;DHT22;777;47.156;8.326;2023-04-15T10:44:36;8.00;99.90
1568;DHT22;777;47.156;8.326;2023-04-15T10:47:11;7.90;99.90
1568;DHT22;777;47.156;8.326;2023-04-15T10:49:48;7.80;99.90
1568;DHT22;777;47.156;8.326;2023-04-15T10:52:17;7.90;99.90
1568;DHT22;777;47.156;8.326;2023-04-15T10:54:44;8.00;99.90
1568;DHT22;777;47.156;8.326;2023-04-15T10:57:20;8.10;99.90
1568;DHT22;777;47.156;8.326;2023-04-15T11:00:08;8.20;99.90
1568;DHT22;777;47.156;8.326;2023-04-15T11:02:41;8.40;99.90
1568;DHT22;777;47.156;8.326;2023-04-15T11:05:08;8.60;99.90
1568;DHT22;777;47.156;8.326;2023-04-15T11:07:37;8.60;99.90
1568;DHT22;777;47.156;8.326;2023-04-15T11:13:22;8.80;99.90
1568;DHT22;777;47.156;8.326;2023-04-15T11:15:55;9.00;99.90
1568;DHT22;777;47.156;8.326;2023-04-15T11:18:24;9.00;99.90
1568;DHT22;777;47.156;8.326;2023-04-15T11:20:54;9.10;99.90
1568;DHT22;777;47.156;8.326;2023-04-15T11:23:27;9.20;99.90
1568;DHT22;777;47.156;8.326;2023-04-15T11:25:55;9.20;99.90
1568;DHT22;777;47.156;8.326;2023-04-15T11:28:25;9.00;99.90
1568;DHT22;777;47.156;8.326;2023-04-15T11:30:54;8.80;99.90
1568;DHT22;777;47.156;8.326;2023-04-15T11:33:22;8.80;99.90
1568;DHT22;777;47.156;8.326;2023-04-15T11:38:18;8.20;99.90
1568;DHT22;777;47.156;8.326;2023-04-15T11:40:45;8.10;99.90
1568;DHT22;777;47.156;8.326;2023-04-15T11:43:13;8.20;99.90
1568;DHT22;777;47.156;8.326;2023-04-15T11:45:49;8.30;99.90
1568;DHT22;777;47.156;8.326;2023-04-15T11:48:19;8.60;99.90
1568;DHT22;777;47.156;8.326;2023-04-15T11:50:52;8.70;99.90
1568;DHT22;777;47.156;8.326;2023-04-15T11:53:19;8.60;99.90
1568;DHT22;777;47.156;8.326;2023-04-15T11:55:48;8.50;99.90
1568;DHT22;777;47.156;8.326;2023-04-15T11:58:16;8.50;99.90
1568;DHT22;777;47.156;8.326;2023-04-15T12:00:48;8.70;99.90
1568;DHT22;777;47.156;8.326;2023-04-15T12:03:24;8.60;99.90
1568;DHT22;777;47.156;8.326;2023-04-15T12:09:06;8.80;99.90
1568;DHT22;777;47.156;8.326;2023-04-15T12:11:44;9.10;99.90
1568;DHT22;777;47.156;8.326;2023-04-15T12:14:19;9.40;99.90
1568;DHT22;777;47.156;8.326;2023-04-15T12:16:48;9.30;99.90
1568;DHT22;777;47.156;8.326;2023-04-15T12:19:22;9.40;99.90
1568;DHT22;777;47.156;8.326;2023-04-15T12:21:49;9.50;99.90
1568;DHT22;777;47.156;8.326;2023-04-15T12:24:19;9.50;99.90
1568;DHT22;777;47.156;8.326;2023-04-15T12:26:50;9.60;99.90
1568;DHT22;777;47.156;8.326;2023-04-15T12:29:17;9.70;99.90
1568;DHT22;777;47.156;8.326;2023-04-15T12:31:50;9.70;99.90
1568;DHT22;777;47.156;8.326;2023-04-15T12:34:26;9.70;99.90
1568;DHT22;777;47.156;8.326;2023-04-15T12:36:54;9.70;99.90
1568;DHT22;777;47.156;8.326;2023-04-15T12:39:23;9.70;99.90
1568;DHT22;777;47.156;8.326;2023-04-15T12:41:50;9.60;99.90
1568;DHT22;777;47.156;8.326;2023-04-15T12:44:17;9.50;99.90
1568;DHT22;777;47.156;8.326;2023-04-15T12:46:44;9.40;99.90
1568;DHT22;777;47.156;8.326;2023-04-15T12:49:12;9.30;99.90
1568;DHT22;777;47.156;8.326;2023-04-15T12:51:42;9.30;99.90
1568;DHT22;777;47.156;8.326;2023-04-15T12:54:09;9.40;99.90
1568;DHT22;777;47.156;8.326;2023-04-15T12:56:36;9.30;99.90
1568;DHT22;777;47.156;8.326;2023-04-15T12:59:03;9.20;99.90
1568;DHT22;777;47.156;8.326;2023-04-15T13:01:30;9.20;99.90
1568;DHT22;777;47.156;8.326;2023-04-15T13:03:57;9.20;99.90
1568;DHT22;777;47.156;8.326;2023-04-15T13:06:24;9.20;99.90
1568;DHT22;777;47.156;8.326;2023-04-15T13:08:52;9.20;99.90
1568;DHT22;777;47.156;8.326;2023-04-15T13:11:20;9.10;99.90
1568;DHT22;777;47.156;8.326;2023-04-15T13:13:47;9.20;99.90
1568;DHT22;777;47.156;8.326;2023-04-15T13:16:14;9.30;99.90
1568;DHT22;777;47.156;8.326;2023-04-15T13:18:41;9.40;99.90
1568;DHT22;777;47.156;8.326;2023-04-15T13:21:08;9.60;99.90
1568;DHT22;777;47.156;8.326;2023-04-15T13:23:36;9.70;99.90
1568;DHT22;777;47.156;8.326;2023-04-15T13:26:04;9.70;99.90
1568;DHT22;777;47.156;8.326;2023-04-15T13:28:31;9.80;99.90
1568;DHT22;777;47.156;8.326;2023-04-15T13:30:58;9.60;99.90
1568;DHT22;777;47.156;8.326;2023-04-15T13:33:26;9.50;99.90
1568;DHT22;777;47.156;8.326;2023-04-15T13:35:53;9.50;99.90
1568;DHT22;777;47.156;8.326;2023-04-15T13:38:20;9.60;99.90
1568;DHT22;777;47.156;8.326;2023-04-15T13:40:47;9.50;99.90
1568;DHT22;777;47.156;8.326;2023-04-15T13:43:16;9.40;99.90
1568;DHT22;777;47.156;8.326;2023-04-15T13:45:43;9.50;99.90
1568;DHT22;777;47.156;8.326;2023-04-15T13:48:10;9.30;99.90
1568;DHT22;777;47.156;8.326;2023-04-15T13:50:37;9.30;99.90
1568;DHT22;777;47.156;8.326;2023-04-15T13:53:06;9.10;99.90
1568;DHT22;777;47.156;8.326;2023-04-15T13:55:33;9.00;99.90
1568;DHT22;777;47.156;8.326;2023-04-15T13:58:00;8.70;99.90
1568;DHT22;777;47.156;8.326;2023-04-15T14:00:28;8.40;99.90
1568;DHT22;777;47.156;8.326;2023-04-15T14:02:55;8.00;99.90
1568;DHT22;777;47.156;8.326;2023-04-15T14:05:22;7.60;99.90
1568;DHT22;777;47.156;8.326;2023-04-15T14:07:49;7.50;99.90
1568;DHT22;777;47.156;8.326;2023-04-15T14:10:16;7.60;99.90
1568;DHT22;777;47.156;8.326;2023-04-15T14:12:43;7.60;99.90
1568;DHT22;777;47.156;8.326;2023-04-15T14:15:10;7.70;99.90
1568;DHT22;777;47.156;8.326;2023-04-15T14:17:39;7.50;99.90
1568;DHT22;777;47.156;8.326;2023-04-15T14:20:08;7.60;99.90
1568;DHT22;777;47.156;8.326;2023-04-15T14:22:35;7.50;99.90
1568;DHT22;777;47.156;8.326;2023-04-15T14:25:02;7.40;99.90
1568;DHT22;777;47.156;8.326;2023-04-15T14:27:29;7.40;99.90
1568;DHT22;777;47.156;8.326;2023-04-15T14:29:56;7.40;99.90
1568;DHT22;777;47.156;8.326;2023-04-15T14:32:24;7.40;99.90
1568;DHT22;777;47.156;8.326;2023-04-15T14:34:53;7.40;99.90
1568;DHT22;777;47.156;8.326;2023-04-15T14:37:20;7.50;99.90
1568;DHT22;777;47.156;8.326;2023-04-15T14:39:47;7.50;99.90
1568;DHT22;777;47.156;8.326;2023-04-15T14:42:14;7.60;99.90
1568;DHT22;777;47.156;8.326;2023-04-15T14:44:41;7.80;99.90
1568;DHT22;777;47.156;8.326;2023-04-15T14:47:09;7.80;99.90
1568;DHT22;777;47.156;8.326;2023-04-15T14:49:36;7.70;99.90
1568;DHT22;777;47.156;8.326;2023-04-15T14:52:05;7.80;99.90
1568;DHT22;777;47.156;8.326;2023-04-15T14:54:32;7.90;99.90
1568;DHT22;777;47.156;8.326;2023-04-15T14:56:59;8.00;99.90
1568;DHT22;777;47.156;8.326;2023-04-15T14:59:26;8.00;99.90
1568;DHT22;777;47.156;8.326;2023-04-15T15:01:53;8.20;99.90
1568;DHT22;777;47.156;8.326;2023-04-15T15:04:20;8.20;99.90
1568;DHT22;777;47.156;8.326;2023-04-15T15:06:47;8.30;99.90
1568;DHT22;777;47.156;8.326;2023-04-15T15:09:16;8.10;99.90
1568;DHT22;777;47.156;8.326;2023-04-15T15:11:44;8.00;99.90
1568;DHT22;777;47.156;8.326;2023-04-15T15:14:11;7.90;99.90
1568;DHT22;777;47.156;8.326;2023-04-15T15:16:38;7.80;99.90
1568;DHT22;777;47.156;8.326;2023-04-15T15:19:05;7.70;99.90
1568;DHT22;777;47.156;8.326;2023-04-15T15:21:32;7.70;99.90
1568;DHT22;777;47.156;8.326;2023-04-15T15:23:59;7.70;99.90
1568;DHT22;777;47.156;8.326;2023-04-15T15:26:27;7.70;99.90
1568;DHT22;777;47.156;8.326;2023-04-15T15:28:54;7.70;99.90
1568;DHT22;777;47.156;8.326;2023-04-15T15:31:21;7.70;99.90
1568;DHT22;777;47.156;8.326;2023-04-15T15:33:48;7.70;99.90
1568;DHT22;777;47.156;8.326;2023-04-15T15:36:16;7.80;99.90
1568;DHT22;777;47.156;8.326;2023-04-15T15:38:43;7.90;99.90
1568;DHT22;777;47.156;8.326;2023-04-15T15:41:10;7.90;99.90
1568;DHT22;777;47.156;8.326;2023-04-15T15:43:38;8.10;99.90
1568;DHT22;777;47.156;8.326;2023-04-15T15:46:05;8.20;99.90
1568;DHT22;777;47.156;8.326;2023-04-15T15:48:32;8.20;99.90
1568;DHT22;777;47.156;8.326;2023-04-15T15:51:00;8.20;99.90
1568;DHT22;777;47.156;8.326;2023-04-15T15:53:28;8.20;99.90
1568;DHT22;777;47.156;8.326;2023-04-15T15:55:55;8.20;99.90
1568;DHT22;777;47.156;8.326;2023-04-15T15:58:22;8.20;99.90
1568;DHT22;777;47.156;8.326;2023-04-15T16:00:51;8.10;99.90
1568;DHT22;777;47.156;8.326;2023-04-15T16:03:17;8.20;99.90
1568;DHT22;777;47.156;8.326;2023-04-15T16:05:44;8.10;99.90
1568;DHT22;777;47.156;8.326;2023-04-15T16:08:12;8.00;99.90
1568;DHT22;777;47.156;8.326;2023-04-15T16:10:39;8.00;99.90
1568;DHT22;777;47.156;8.326;2023-04-15T16:13:06;7.90;99.90
1568;DHT22;777;47.156;8.326;2023-04-15T16:15:33;7.90;99.90
1568;DHT22;777;47.156;8.326;2023-04-15T16:18:02;7.90;99.90
1568;DHT22;777;47.156;8.326;2023-04-15T16:20:29;7.90;99.90
1568;DHT22;777;47.156;8.326;2023-04-15T16:22:56;7.90;99.90
1568;DHT22;777;47.156;8.326;2023-04-15T16:25:24;7.90;99.90
1568;DHT22;777;47.156;8.326;2023-04-15T16:27:51;7.80;99.90
1568;DHT22;777;47.156;8.326;2023-04-15T16:30:18;7.80;99.90
1568;DHT22;777;47.156;8.326;2023-04-15T16:32:45;7.80;99.90
1568;DHT22;777;47.156;8.326;2023-04-15T16:35:13;7.80;99.90
1568;DHT22;777;47.156;8.326;2023-04-15T16:37:41;7.80;99.90
1568;DHT22;777;47.156;8.326;2023-04-15T16:40:09;7.80;99.90
1568;DHT22;777;47.156;8.326;2023-04-15T16:42:36;7.70;99.90
1568;DHT22;777;47.156;8.326;2023-04-15T16:45:05;7.70;99.90
1568;DHT22;777;47.156;8.326;2023-04-15T16:47:32;7.70;99.90